METAR & TAF

RJTT 271500Z 08010KT 9999 FEW015 BKN/// 20/19 Q1012 NOSIG RMK 1SC015 A2990
RJTT 271430Z 08012KT 9999 BKN015 BKN/// 20/19 Q1012 NOSIG RMK 5SC015 A2990
RJTT 271400Z 08013KT 9999 FEW015 BKN020 BKN/// 20/19 Q1012 NOSIG RMK 1SC015 6SC020 A2991
RJTT 271330Z 08013KT 9999 FEW015 BKN020 20/19 Q1012 NOSIG RMK 1SC015 7SC020 A2990
RJTT 271300Z 07015KT 9999 BKN020 20/19 Q1013 NOSIG RMK 7SC020 A2992
RJTT 271230Z 08013KT 9999 FEW020 BKN025 BKN/// 20/19 Q1013 NOSIG
RJTT 271200Z 08014KT 9999 FEW020 BKN025 BKN/// 21/19 Q1012 NOSIG RMK 2SC020 6SC025 A2991
RJTT 271130Z 08016KT 9999 FEW015 BKN020 21/19 Q1012 NOSIG RMK 1CU015 7SC020 A2990
RJTT 271100Z 08012KT 9999 FEW020 BKN090 BKN/// 21/19 Q1012 NOSIG
RJTT 271030Z 16014KT 9999 FEW025 SCT040 BKN090 22/19 Q1011 BECMG 10010KT

TAF RJTT 271106Z 2712/2818 08010KT 9999 FEW015 BKN025
  BECMG 2718/2720 30004KT
  BECMG 2721/2723 18016KT